Hackensack, New Jersey
Current Conditions -  °F | °C
As of 10:11 PM on Wednesday 26 Nov 2014 (Local Time) from KTEB Reporting Station
Light Snow Light Snow  
Wind Chill: 28°   Ceiling: 3500
Heat Index: 36°   Visibility: 6mi
Dew Point: 30°   Wind: 10mph
Humidity: 81%   Direction: 340°NNW
Pressure: 29.81"   Gusts: 20mph
Location:  40.89°N, 74.04°W
Report Text: KTEB 270311Z 34009G17KT 6SM -SN FEW012 OVC035 02/M01 A2981 RMK AO2 P0000 $
Loading
Personal Weather Stations






























Interactive Weather Map New forecast layout! Learn more

10-Day Weather Forecast

Advertisements
Track Severe Weather on mobile